createdAt,value
2023-02-21T00:00:23.445Z,7.88
2023-02-21T00:04:20.444Z,7.87
2023-02-21T00:08:07.122Z,7.84
2023-02-21T00:11:51.411Z,7.82
2023-02-21T00:15:36.472Z,7.76
2023-02-21T00:19:21.029Z,7.72
2023-02-21T00:23:06.865Z,7.68
2023-02-21T00:26:53.635Z,7.66
2023-02-21T00:30:40.465Z,7.66
2023-02-21T00:34:25.731Z,7.67
2023-02-21T00:38:14.237Z,7.68
2023-02-21T00:41:59.337Z,7.68
2023-02-21T00:45:43.970Z,7.70
2023-02-21T00:49:30.430Z,7.71
2023-02-21T00:53:16.952Z,7.70
2023-02-21T00:57:03.499Z,7.68
2023-02-21T01:00:52.710Z,7.66
2023-02-21T01:04:41.190Z,7.63
2023-02-21T01:08:25.863Z,7.62
2023-02-21T01:12:10.432Z,7.58
2023-02-21T01:15:54.719Z,7.54
2023-02-21T01:19:39.714Z,7.49
2023-02-21T01:23:24.251Z,7.43
2023-02-21T01:27:08.570Z,7.40
2023-02-21T01:30:54.154Z,7.36
2023-02-21T01:34:38.797Z,7.32
2023-02-21T01:38:23.112Z,7.31
2023-02-21T01:42:07.766Z,7.30
2023-02-21T01:46:06.149Z,7.26
2023-02-21T01:49:51.429Z,7.22
2023-02-21T01:53:40.316Z,7.19
2023-02-21T01:57:25.692Z,7.15
2023-02-21T02:01:10.150Z,7.13
2023-02-21T02:04:54.983Z,7.12
2023-02-21T02:08:42.981Z,7.10
2023-02-21T02:12:33.117Z,7.08
2023-02-21T02:16:07.131Z,7.06
2023-02-21T02:20:21.320Z,7.07
2023-02-21T02:24:00.824Z,7.08
2023-02-21T02:27:52.235Z,7.08
2023-02-21T02:31:41.786Z,7.10
2023-02-21T02:35:14.104Z,7.12
2023-02-21T02:38:51.642Z,7.12
2023-02-21T02:42:33.621Z,7.09
2023-02-21T02:46:04.784Z,7.07
2023-02-21T02:49:35.139Z,7.03
2023-02-21T02:53:04.989Z,7.00
2023-02-21T02:56:37.137Z,6.96
2023-02-21T03:00:04.137Z,6.91
2023-02-21T03:03:49.026Z,6.86
2023-02-21T03:07:24.759Z,6.79
2023-02-21T03:11:00.542Z,6.72
2023-02-21T03:14:34.146Z,6.66
2023-02-21T03:18:05.524Z,6.61
2023-02-21T03:21:37.702Z,6.57
2023-02-21T03:25:05.993Z,6.56
2023-02-21T03:28:37.402Z,6.56
2023-02-21T03:32:11.028Z,6.56
2023-02-21T03:35:37.948Z,6.57
2023-02-21T03:39:06.767Z,6.56
2023-02-21T03:42:33.445Z,6.52
2023-02-21T03:46:00.728Z,6.52
2023-02-21T03:49:29.194Z,6.52
2023-02-21T03:52:55.836Z,6.51
2023-02-21T03:56:26.162Z,6.51
2023-02-21T04:00:07.595Z,6.50
2023-02-21T04:03:41.859Z,6.50
2023-02-21T04:07:08.853Z,6.49
2023-02-21T04:10:46.868Z,6.47
2023-02-21T04:14:19.004Z,6.47
2023-02-21T04:17:45.880Z,6.45
2023-02-21T04:21:17.162Z,6.45
2023-02-21T04:24:44.526Z,6.45
2023-02-21T04:28:13.262Z,6.45
2023-02-21T04:31:40.236Z,6.46
2023-02-21T04:35:11.465Z,6.47
2023-02-21T04:38:38.959Z,6.47
2023-02-21T04:42:06.036Z,6.48
2023-02-21T04:45:32.706Z,6.52
2023-02-21T04:48:59.599Z,6.55
2023-02-21T04:52:26.185Z,6.59
2023-02-21T04:55:53.117Z,6.65
2023-02-21T04:59:20.015Z,6.71
2023-02-21T05:02:47.185Z,6.75
2023-02-21T05:06:18.273Z,6.79
2023-02-21T05:09:45.031Z,6.80
2023-02-21T05:13:11.946Z,6.81
2023-02-21T05:16:38.411Z,6.79
2023-02-21T05:20:11.908Z,6.75
2023-02-21T05:23:41.038Z,6.69
2023-02-21T05:27:11.655Z,6.60
2023-02-21T05:30:38.553Z,6.54
2023-02-21T05:34:05.583Z,6.48
2023-02-21T05:37:32.766Z,6.44
2023-02-21T05:41:00.248Z,6.40
2023-02-21T05:44:27.287Z,6.37
2023-02-21T05:47:56.560Z,6.37
2023-02-21T05:51:24.319Z,6.38
2023-02-21T05:54:51.262Z,6.38
2023-02-21T05:58:18.562Z,6.40
2023-02-21T06:01:45.419Z,6.43
2023-02-21T06:05:12.176Z,6.45
2023-02-21T06:08:47.740Z,6.46
2023-02-21T06:12:14.258Z,6.46
2023-02-21T06:15:40.539Z,6.44
2023-02-21T06:19:08.736Z,6.39
2023-02-21T06:22:35.523Z,6.39
2023-02-21T06:26:02.374Z,6.36
2023-02-21T06:29:29.759Z,6.33
2023-02-21T06:32:56.983Z,6.31
2023-02-21T06:36:25.424Z,6.30
2023-02-21T06:39:51.980Z,6.32
2023-02-21T06:43:20.041Z,6.36
2023-02-21T06:46:47.415Z,6.39
2023-02-21T06:50:14.168Z,6.45
2023-02-21T06:53:40.579Z,6.52
2023-02-21T06:57:07.918Z,6.58
2023-02-21T07:00:35.343Z,6.63
2023-02-21T07:04:02.153Z,6.65
2023-02-21T07:07:29.049Z,6.66
2023-02-21T07:10:55.595Z,6.67
2023-02-21T07:14:22.788Z,6.67
2023-02-21T07:17:49.576Z,6.67
2023-02-21T07:21:25.071Z,6.66
2023-02-21T07:24:52.850Z,6.66
2023-02-21T07:28:20.245Z,6.67
2023-02-21T07:31:47.089Z,6.66
2023-02-21T07:35:14.111Z,6.67
2023-02-21T07:38:40.757Z,6.69
2023-02-21T07:42:08.216Z,6.73
2023-02-21T07:45:34.848Z,6.76
2023-02-21T07:49:01.971Z,6.81
2023-02-21T07:52:28.677Z,6.87
2023-02-21T07:55:55.270Z,6.91
2023-02-21T07:59:21.878Z,6.97
2023-02-21T08:02:51.292Z,7.00
2023-02-21T08:06:19.314Z,7.00
2023-02-21T08:09:47.290Z,6.99
2023-02-21T08:13:15.299Z,6.97
2023-02-21T08:16:43.790Z,6.97
2023-02-21T08:20:13.054Z,6.96
2023-02-21T08:23:40.409Z,6.95
2023-02-21T08:27:07.002Z,6.95
2023-02-21T08:30:34.060Z,6.95
2023-02-21T08:34:00.969Z,6.95
2023-02-21T08:37:33.178Z,6.97
2023-02-21T08:41:01.179Z,6.98
2023-02-21T08:44:28.087Z,7.02
2023-02-21T08:47:55.590Z,7.08
2023-02-21T08:51:28.447Z,7.14
2023-02-21T08:54:55.126Z,7.20
2023-02-21T08:58:22.664Z,7.23
2023-02-21T09:01:49.727Z,7.26
2023-02-21T09:05:19.446Z,7.30
2023-02-21T09:08:46.819Z,7.32
2023-02-21T09:12:16.018Z,7.33
2023-02-21T09:15:43.372Z,7.32
2023-02-21T09:19:11.164Z,7.33
2023-02-21T09:22:38.584Z,7.34
2023-02-21T09:26:05.784Z,7.32
2023-02-21T09:29:44.970Z,7.30
2023-02-21T09:33:13.290Z,7.30
2023-02-21T09:36:40.329Z,7.31
2023-02-21T09:40:13.361Z,7.34
2023-02-21T09:43:43.043Z,7.39
2023-02-21T09:47:15.009Z,7.42
2023-02-21T09:50:46.868Z,7.46
2023-02-21T09:54:21.323Z,7.49
2023-02-21T09:57:48.171Z,7.53
2023-02-21T10:01:27.880Z,7.51
2023-02-21T10:05:09.141Z,7.48
2023-02-21T10:08:48.846Z,7.46
2023-02-21T10:12:27.111Z,7.46
2023-02-21T10:16:01.862Z,7.47
2023-02-21T10:19:33.354Z,7.49
2023-02-21T10:23:00.441Z,7.51
2023-02-21T10:26:30.225Z,7.53
2023-02-21T10:30:01.707Z,7.58
2023-02-21T10:33:29.710Z,7.64
2023-02-21T10:36:57.842Z,7.69
2023-02-21T10:40:35.835Z,7.77
2023-02-21T10:44:06.847Z,7.85
2023-02-21T10:47:44.238Z,7.91
2023-02-21T10:51:14.641Z,7.97
2023-02-21T10:54:42.077Z,8.01
2023-02-21T10:58:25.489Z,8.03
2023-02-21T11:01:54.071Z,8.05
2023-02-21T11:05:24.023Z,8.08
2023-02-21T11:08:51.214Z,8.11
2023-02-21T11:12:27.188Z,8.14
2023-02-21T11:16:12.777Z,8.15
2023-02-21T11:19:54.786Z,8.14
2023-02-21T11:23:28.923Z,8.14
2023-02-21T11:26:56.445Z,8.14
2023-02-21T11:30:25.634Z,8.15
2023-02-21T11:33:58.281Z,8.16
2023-02-21T11:37:24.992Z,8.18
2023-02-21T11:40:55.023Z,8.17
2023-02-21T11:44:31.832Z,8.16
2023-02-21T11:48:02.906Z,8.18
2023-02-21T11:51:44.951Z,8.23
2023-02-21T11:55:17.836Z,8.30
2023-02-21T11:58:50.677Z,8.35
2023-02-21T12:02:48.079Z,8.43
2023-02-21T12:06:21.551Z,8.55
2023-02-21T12:09:49.479Z,8.59
2023-02-21T12:13:34.223Z,8.61
2023-02-21T12:17:15.026Z,8.69
2023-02-21T12:21:21.968Z,8.84
2023-02-21T12:24:57.748Z,8.91
2023-02-21T12:28:33.013Z,8.92
2023-02-21T12:32:15.212Z,8.93
2023-02-21T12:36:02.841Z,8.96
2023-02-21T12:39:51.282Z,8.99
2023-02-21T12:43:38.018Z,8.96
2023-02-21T12:47:10.679Z,8.99
2023-02-21T12:50:41.753Z,9.02
2023-02-21T12:54:12.471Z,9.19
2023-02-21T12:57:46.968Z,9.19
2023-02-21T13:01:20.781Z,9.23
2023-02-21T13:04:54.967Z,9.21
2023-02-21T13:08:27.598Z,9.17
2023-02-21T13:12:02.074Z,9.14
2023-02-21T13:15:30.665Z,9.15
2023-02-21T13:19:02.307Z,9.25
2023-02-21T13:22:48.207Z,9.29
2023-02-21T13:26:52.134Z,9.30
2023-02-21T13:30:24.422Z,9.33
2023-02-21T13:33:56.566Z,9.33
2023-02-21T13:37:26.393Z,9.32
2023-02-21T13:40:56.496Z,9.29
2023-02-21T13:44:33.641Z,9.22
2023-02-21T13:48:22.967Z,9.20
2023-02-21T13:51:53.330Z,9.15
2023-02-21T13:55:31.655Z,9.10
2023-02-21T13:59:35.957Z,9.08
2023-02-21T14:03:05.967Z,9.08
2023-02-21T14:06:56.128Z,9.08
2023-02-21T14:10:33.792Z,9.06
2023-02-21T14:14:03.689Z,9.04
2023-02-21T14:17:32.203Z,9.00
2023-02-21T14:21:00.895Z,8.97
2023-02-21T14:24:30.100Z,9.04
2023-02-21T14:27:57.646Z,9.10
2023-02-21T14:31:50.612Z,9.10
2023-02-21T14:35:29.590Z,9.04
2023-02-21T14:38:56.425Z,9.00
2023-02-21T14:42:44.730Z,8.99
2023-02-21T14:46:42.046Z,8.96
2023-02-21T14:50:33.877Z,8.92
2023-02-21T14:54:27.586Z,8.92
2023-02-21T14:58:30.859Z,8.91
2023-02-21T15:02:13.714Z,8.91
2023-02-21T15:05:46.502Z,8.88
2023-02-21T15:09:22.024Z,8.81
2023-02-21T15:12:51.432Z,8.74
2023-02-21T15:16:19.750Z,8.66
2023-02-21T15:19:46.957Z,8.61
2023-02-21T15:23:27.899Z,8.57
2023-02-21T15:27:12.470Z,8.51
2023-02-21T15:30:42.475Z,8.44
2023-02-21T15:34:18.559Z,8.38
2023-02-21T15:37:47.526Z,8.33
2023-02-21T15:41:33.853Z,8.30
2023-02-21T15:45:05.251Z,8.24
2023-02-21T15:48:32.650Z,8.16
2023-02-21T15:51:59.462Z,8.08
2023-02-21T15:55:35.982Z,8.01
2023-02-21T15:59:12.221Z,7.98
2023-02-21T16:02:39.725Z,7.98
2023-02-21T16:06:23.182Z,8.00
2023-02-21T16:09:58.789Z,7.98
2023-02-21T16:13:25.679Z,7.96
2023-02-21T16:17:09.261Z,7.94
2023-02-21T16:20:39.367Z,7.90
2023-02-21T16:24:28.617Z,7.88
2023-02-21T16:28:00.485Z,7.83
2023-02-21T16:31:31.838Z,7.74
2023-02-21T16:34:58.798Z,7.70
2023-02-21T16:38:27.808Z,7.61
2023-02-21T16:41:56.349Z,7.51
2023-02-21T16:45:24.295Z,7.42
2023-02-21T16:48:51.113Z,7.33
2023-02-21T16:52:18.884Z,7.26
2023-02-21T16:55:46.544Z,7.18
2023-02-21T16:59:16.552Z,7.11
2023-02-21T17:02:44.201Z,7.03
2023-02-21T17:06:20.305Z,6.94
2023-02-21T17:09:47.160Z,6.87
2023-02-21T17:13:14.184Z,6.79
2023-02-21T17:16:45.253Z,6.75
2023-02-21T17:20:20.895Z,6.73
2023-02-21T17:23:54.700Z,6.74
2023-02-21T17:27:21.966Z,6.72
2023-02-21T17:30:49.805Z,6.75
2023-02-21T17:34:20.900Z,6.81
2023-02-21T17:37:49.848Z,6.88
2023-02-21T17:41:17.952Z,6.94
2023-02-21T17:44:48.757Z,6.98
2023-02-21T17:48:16.249Z,6.99
2023-02-21T17:51:47.330Z,7.00
2023-02-21T17:55:21.486Z,7.01
2023-02-21T17:58:51.770Z,7.01
2023-02-21T18:02:21.047Z,7.00
2023-02-21T18:05:48.932Z,6.97
2023-02-21T18:09:16.769Z,6.95
2023-02-21T18:12:48.268Z,6.93
2023-02-21T18:16:18.276Z,6.92
2023-02-21T18:19:51.058Z,6.92
2023-02-21T18:23:21.759Z,6.92
2023-02-21T18:26:50.541Z,6.89
2023-02-21T18:30:23.668Z,6.88
2023-02-21T18:33:52.390Z,6.86
2023-02-21T18:37:20.488Z,6.85
2023-02-21T18:40:51.570Z,6.82
2023-02-21T18:44:21.245Z,6.80
2023-02-21T18:47:49.035Z,6.80
2023-02-21T18:51:20.945Z,6.80
2023-02-21T18:54:50.250Z,6.82
2023-02-21T18:58:18.055Z,6.85
2023-02-21T19:01:51.920Z,6.89
2023-02-21T19:05:23.498Z,6.92
2023-02-21T19:08:51.993Z,6.94
2023-02-21T19:12:22.831Z,6.95
2023-02-21T19:15:49.758Z,6.88
2023-02-21T19:19:18.100Z,6.82
2023-02-21T19:22:47.977Z,6.78
2023-02-21T19:26:16.364Z,6.73
2023-02-21T19:29:45.004Z,6.65
2023-02-21T19:33:15.252Z,6.60
2023-02-21T19:36:43.345Z,6.52
2023-02-21T19:40:14.217Z,6.42
2023-02-21T19:43:50.491Z,6.36
2023-02-21T19:47:18.761Z,6.31
2023-02-21T19:50:47.900Z,6.24
2023-02-21T19:54:18.230Z,6.23
2023-02-21T19:57:48.809Z,6.23
2023-02-21T20:01:17.529Z,6.23
2023-02-21T20:04:45.371Z,6.25
2023-02-21T20:08:14.745Z,6.25
2023-02-21T20:11:46.579Z,6.25
2023-02-21T20:15:16.842Z,6.28
2023-02-21T20:18:50.754Z,6.31
2023-02-21T20:22:21.311Z,6.36
2023-02-21T20:25:54.473Z,6.41
2023-02-21T20:29:26.044Z,6.46
2023-02-21T20:32:57.381Z,6.50
2023-02-21T20:36:34.400Z,6.52
2023-02-21T20:40:04.078Z,6.53
2023-02-21T20:43:31.719Z,6.50
2023-02-21T20:47:02.201Z,6.47
2023-02-21T20:50:35.187Z,6.43
2023-02-21T20:54:05.118Z,6.40
2023-02-21T20:57:37.323Z,6.35
2023-02-21T21:01:15.713Z,6.29
2023-02-21T21:04:49.791Z,6.23
2023-02-21T21:08:20.603Z,6.19
2023-02-21T21:11:48.624Z,6.17
2023-02-21T21:15:20.270Z,6.13
2023-02-21T21:18:48.043Z,6.12
2023-02-21T21:22:18.965Z,6.11
2023-02-21T21:25:50.422Z,6.10
2023-02-21T21:29:19.417Z,6.12
2023-02-21T21:32:46.973Z,6.15
2023-02-21T21:36:14.863Z,6.19
2023-02-21T21:39:50.047Z,6.25
2023-02-21T21:43:21.754Z,6.28
2023-02-21T21:46:54.016Z,6.32
2023-02-21T21:50:29.697Z,6.36
2023-02-21T21:54:00.363Z,6.38
2023-02-21T21:57:29.849Z,6.37
2023-02-21T22:01:01.795Z,6.35
2023-02-21T22:04:31.504Z,6.31
2023-02-21T22:08:01.711Z,6.25
2023-02-21T22:11:34.611Z,6.18
2023-02-21T22:15:06.517Z,6.11
2023-02-21T22:18:37.145Z,6.04
2023-02-21T22:22:08.950Z,5.95
2023-02-21T22:25:39.451Z,5.84
2023-02-21T22:29:09.219Z,5.76
2023-02-21T22:32:36.478Z,5.66
2023-02-21T22:36:11.179Z,5.56
2023-02-21T22:39:38.804Z,5.46
2023-02-21T22:43:09.142Z,5.39
2023-02-21T22:46:44.980Z,5.33
2023-02-21T22:50:13.545Z,5.30
2023-02-21T22:53:41.652Z,5.27
2023-02-21T22:57:08.730Z,5.24
2023-02-21T23:00:40.686Z,5.19
2023-02-21T23:04:16.303Z,5.15
2023-02-21T23:07:44.586Z,5.13
2023-02-21T23:11:11.291Z,5.08
2023-02-21T23:14:39.821Z,5.00
2023-02-21T23:18:08.152Z,4.93
2023-02-21T23:21:37.084Z,4.88
2023-02-21T23:25:19.973Z,4.83
2023-02-21T23:28:47.777Z,4.78
2023-02-21T23:32:14.495Z,4.71
2023-02-21T23:35:41.855Z,4.64
2023-02-21T23:39:11.129Z,4.57
2023-02-21T23:42:41.113Z,4.60
2023-02-21T23:46:09.245Z,4.59
2023-02-21T23:49:40.992Z,4.61
2023-02-21T23:53:10.157Z,4.62
2023-02-21T23:56:37.272Z,4.65
